Time;durP1;ratioP1;P1;durP2;ratioP2;P2;SDS_P1;SDS_P2;PMS_P1;PMS_P2;Temp;Humidity;BMP_temperature;BMP_pressure;BME280_temperature;BME280_humidity;BME280_pressure;Samples;Min_cycle;Max_cycle;Signal;HPM_P1;HPM_P2
2024/04/17 00:00:17;;;;;;;0.90;0.25;;;;;;;;;;5425473;26;19987;-78
2024/04/17 00:02:43;;;;;;;0.20;0.20;;;;;;;;;;5438365;26;20018;-78
2024/04/17 00:05:09;;;;;;;0.20;0.10;;;;;;;;;;5424698;26;19996;-79
2024/04/17 00:07:35;;;;;;;0.73;0.35;;;;;;;;;;5411626;26;20006;-78
2024/04/17 00:10:01;;;;;;;0.35;0.20;;;;;;;;;;5411233;26;20031;-78
2024/04/17 00:12:27;;;;;;;2.00;0.38;;;;;;;;;;5401778;26;20035;-79
2024/04/17 00:14:53;;;;;;;0.20;0.20;;;;;;;;;;5422879;26;20003;-79
2024/04/17 00:17:20;;;;;;;1.30;0.45;;;;;;;;;;5422289;26;19996;-78
2024/04/17 00:19:46;;;;;;;0.68;0.10;;;;;;;;;;5425418;26;20449;-78
2024/04/17 00:22:12;;;;;;;0.40;0.28;;;;;;;;;;5408416;26;19995;-77
2024/04/17 00:24:38;;;;;;;0.30;0.20;;;;;;;;;;5411065;26;20058;-78
2024/04/17 00:27:04;;;;;;;0.20;0.20;;;;;;;;;;5428588;26;20011;-78
2024/04/17 00:29:30;;;;;;;0.15;0.15;;;;;;;;;;5413292;26;19999;-78
2024/04/17 00:31:57;;;;;;;0.28;0.28;;;;;;;;;;5412187;26;20014;-77
2024/04/17 00:34:23;;;;;;;0.30;0.20;;;;;;;;;;5416966;26;19984;-77
2024/04/17 00:36:49;;;;;;;0.32;0.20;;;;;;;;;;5437723;26;19992;-77
2024/04/17 00:39:15;;;;;;;0.47;0.17;;;;;;;;;;5435708;26;19992;-78
2024/04/17 00:41:41;;;;;;;0.95;0.55;;;;;;;;;;5394320;26;20016;-77
2024/04/17 00:44:08;;;;;;;0.35;0.35;;;;;;;;;;5414922;26;20014;-77
2024/04/17 00:46:37;;;;;;;0.77;0.43;;;;;;;;;;5440914;26;19996;-77
2024/04/17 00:49:03;;;;;;;0.13;0.13;;;;;;;;;;5428633;26;20447;-79
2024/04/17 00:51:29;;;;;;;0.30;0.20;;;;;;;;;;5404105;26;19996;-78
2024/04/17 00:53:56;;;;;;;0.13;0.13;;;;;;;;;;5414175;26;20007;-77
2024/04/17 00:56:22;;;;;;;1.23;0.30;;;;;;;;;;5429342;26;20007;-77
2024/04/17 00:58:48;;;;;;;0.20;0.20;;;;;;;;;;5436374;26;20388;-78
2024/04/17 01:01:14;;;;;;;0.55;0.50;;;;;;;;;;5427744;26;19991;-78
2024/04/17 01:03:41;;;;;;;0.17;0.15;;;;;;;;;;5410889;26;20002;-77
2024/04/17 01:06:07;;;;;;;0.20;0.20;;;;;;;;;;5390386;26;20007;-77
2024/04/17 01:08:33;;;;;;;0.17;0.17;;;;;;;;;;5415207;26;20014;-77
2024/04/17 01:11:02;;;;;;;0.70;0.25;;;;;;;;;;5414990;26;20080;-77
2024/04/17 01:13:29;;;;;;;0.40;0.30;;;;;;;;;;5427457;26;20050;-77
2024/04/17 01:15:58;;;;;;;0.25;0.20;;;;;;;;;;5421085;26;20006;-77
2024/04/17 01:18:25;;;;;;;0.25;0.17;;;;;;;;;;5413686;26;19995;-79
2024/04/17 01:20:51;;;;;;;0.10;0.10;;;;;;;;;;5399307;26;20000;-78
2024/04/17 01:23:17;;;;;;;0.52;0.20;;;;;;;;;;5411538;26;20005;-78
2024/04/17 01:25:43;;;;;;;0.55;0.38;;;;;;;;;;5427565;26;19995;-78
2024/04/17 01:28:09;;;;;;;0.73;0.22;;;;;;;;;;5414653;26;20010;-77
2024/04/17 01:30:36;;;;;;;0.47;0.38;;;;;;;;;;5426725;26;20027;-77
2024/04/17 01:33:02;;;;;;;2.70;0.35;;;;;;;;;;5424739;26;20010;-78
2024/04/17 01:35:28;;;;;;;0.13;0.13;;;;;;;;;;5412716;26;20022;-78
2024/04/17 01:37:54;;;;;;;0.22;0.22;;;;;;;;;;5411456;26;20011;-78
2024/04/17 01:40:20;;;;;;;0.52;0.50;;;;;;;;;;5427529;26;20248;-79
2024/04/17 01:42:46;;;;;;;0.20;0.20;;;;;;;;;;5428235;26;20006;-79
2024/04/17 01:45:12;;;;;;;0.20;0.10;;;;;;;;;;5410160;26;20377;-78
2024/04/17 01:47:38;;;;;;;0.30;0.30;;;;;;;;;;5431274;26;20290;-76
2024/04/17 01:50:07;;;;;;;0.38;0.30;;;;;;;;;;5436142;26;20007;-77
2024/04/17 01:52:33;;;;;;;0.77;0.20;;;;;;;;;;5433284;26;20019;-76
2024/04/17 01:54:59;;;;;;;1.00;0.60;;;;;;;;;;5435407;26;20010;-78
2024/04/17 01:57:25;;;;;;;0.40;0.40;;;;;;;;;;5419093;26;20015;-78
2024/04/17 01:59:51;;;;;;;0.40;0.40;;;;;;;;;;5418175;26;20138;-77
2024/04/17 02:02:17;;;;;;;0.85;0.40;;;;;;;;;;5412919;26;19991;-77
2024/04/17 02:04:43;;;;;;;0.10;0.10;;;;;;;;;;5410557;26;20007;-77
2024/04/17 02:07:09;;;;;;;0.65;0.30;;;;;;;;;;5400335;26;20000;-77
2024/04/17 02:09:36;;;;;;;1.30;0.30;;;;;;;;;;5408735;26;20047;-77
2024/04/17 02:12:02;;;;;;;0.40;0.40;;;;;;;;;;5411972;26;20004;-78
2024/04/17 02:14:28;;;;;;;1.63;0.50;;;;;;;;;;5421931;26;20000;-78
2024/04/17 02:16:54;;;;;;;1.00;0.30;;;;;;;;;;5403041;26;20014;-78
2024/04/17 02:19:20;;;;;;;0.30;0.20;;;;;;;;;;5410113;26;20087;-78
2024/04/17 02:21:46;;;;;;;0.40;0.30;;;;;;;;;;5407319;26;20001;-78
2024/04/17 02:24:12;;;;;;;0.20;0.20;;;;;;;;;;5414619;26;19995;-78
2024/04/17 02:26:38;;;;;;;0.75;0.45;;;;;;;;;;5409312;26;20011;-78
2024/04/17 02:29:04;;;;;;;0.30;0.20;;;;;;;;;;5408229;26;20007;-79
2024/04/17 02:31:30;;;;;;;0.20;0.20;;;;;;;;;;5408666;26;20007;-78
2024/04/17 02:33:56;;;;;;;0.10;0.10;;;;;;;;;;5404658;26;20045;-78
2024/04/17 02:36:22;;;;;;;0.20;0.20;;;;;;;;;;5401361;26;19999;-78
2024/04/17 02:38:48;;;;;;;0.30;0.30;;;;;;;;;;5405408;26;19996;-78
2024/04/17 02:41:14;;;;;;;0.82;0.32;;;;;;;;;;5405164;26;19999;-78
2024/04/17 02:43:40;;;;;;;0.20;0.20;;;;;;;;;;5408675;26;20327;-78
2024/04/17 02:46:06;;;;;;;0.28;0.28;;;;;;;;;;5416960;26;20014;-78
2024/04/17 02:48:32;;;;;;;0.38;0.25;;;;;;;;;;5405159;26;20000;-78
2024/04/17 02:50:59;;;;;;;0.20;0.20;;;;;;;;;;5407958;26;20002;-77
2024/04/17 02:53:25;;;;;;;0.25;0.25;;;;;;;;;;5411580;26;19995;-79
2024/04/17 02:55:51;;;;;;;0.40;0.40;;;;;;;;;;5412713;26;20010;-77
2024/04/17 02:58:17;;;;;;;0.50;0.50;;;;;;;;;;5413291;26;20035;-79
2024/04/17 03:00:43;;;;;;;0.40;0.40;;;;;;;;;;5408880;26;20439;-78
2024/04/17 03:03:09;;;;;;;1.38;0.63;;;;;;;;;;5418973;26;20049;-77
2024/04/17 03:05:35;;;;;;;0.85;0.68;;;;;;;;;;5405724;26;19996;-79
2024/04/17 03:08:02;;;;;;;1.00;0.90;;;;;;;;;;5416410;26;20315;-78
2024/04/17 03:10:30;;;;;;;0.55;0.55;;;;;;;;;;5420133;26;20093;-78
2024/04/17 03:12:56;;;;;;;0.60;0.60;;;;;;;;;;5419366;26;20380;-78
2024/04/17 03:15:23;;;;;;;0.70;0.70;;;;;;;;;;5415617;26;20426;-78
2024/04/17 03:17:49;;;;;;;0.43;0.43;;;;;;;;;;5417430;26;20011;-80
2024/04/17 03:20:15;;;;;;;1.02;0.90;;;;;;;;;;5420852;26;20003;-79
2024/04/17 03:22:42;;;;;;;0.68;0.68;;;;;;;;;;5417856;26;19996;-78
2024/04/17 03:25:08;;;;;;;0.88;0.88;;;;;;;;;;5420359;26;19992;-78
2024/04/17 03:27:35;;;;;;;1.00;0.90;;;;;;;;;;5404956;26;19996;-78
2024/04/17 03:30:01;;;;;;;1.00;0.90;;;;;;;;;;5418484;26;20039;-78
2024/04/17 03:32:27;;;;;;;0.77;0.77;;;;;;;;;;5416843;26;19999;-77
2024/04/17 03:34:53;;;;;;;0.75;0.75;;;;;;;;;;5416102;26;20441;-77
2024/04/17 03:37:19;;;;;;;0.80;0.80;;;;;;;;;;5412522;26;20008;-79
2024/04/17 03:39:46;;;;;;;0.80;0.70;;;;;;;;;;5417902;26;20002;-80
2024/04/17 03:42:12;;;;;;;0.80;0.80;;;;;;;;;;5422152;26;20019;-81
2024/04/17 03:44:38;;;;;;;1.10;1.10;;;;;;;;;;5420760;26;20111;-80
2024/04/17 03:47:05;;;;;;;1.10;1.00;;;;;;;;;;5406218;26;20000;-81
2024/04/17 03:49:31;;;;;;;1.33;1.20;;;;;;;;;;5427572;26;19995;-79
2024/04/17 03:51:57;;;;;;;1.27;1.27;;;;;;;;;;5438123;26;20095;-78
2024/04/17 03:54:23;;;;;;;1.33;1.23;;;;;;;;;;5433089;26;20480;-80
2024/04/17 03:56:49;;;;;;;1.30;1.25;;;;;;;;;;5409413;26;20000;-79
2024/04/17 03:59:15;;;;;;;1.20;1.10;;;;;;;;;;5438998;26;20033;-79
2024/04/17 04:01:42;;;;;;;0.90;0.90;;;;;;;;;;5433985;26;20298;-80
2024/04/17 04:04:08;;;;;;;1.15;1.05;;;;;;;;;;5420933;26;20112;-80
2024/04/17 04:06:34;;;;;;;0.80;0.80;;;;;;;;;;5425959;26;20007;-80
2024/04/17 04:09:00;;;;;;;0.98;0.98;;;;;;;;;;5425526;26;19995;-82
2024/04/17 04:11:26;;;;;;;1.25;1.00;;;;;;;;;;5429751;26;20006;-80
2024/04/17 04:13:53;;;;;;;2.08;1.13;;;;;;;;;;5438607;26;20023;-80
2024/04/17 04:16:19;;;;;;;1.20;1.10;;;;;;;;;;5415652;26;20594;-81
2024/04/17 04:18:45;;;;;;;1.67;1.52;;;;;;;;;;5417491;26;20000;-82
2024/04/17 04:21:11;;;;;;;1.50;1.40;;;;;;;;;;5419584;26;20446;-81
2024/04/17 04:23:38;;;;;;;3.03;1.70;;;;;;;;;;5420151;26;20018;-82
2024/04/17 04:26:04;;;;;;;1.98;1.77;;;;;;;;;;5411875;26;20075;-81
2024/04/17 04:28:30;;;;;;;3.00;2.00;;;;;;;;;;5410126;26;20080;-80
2024/04/17 04:30:56;;;;;;;1.92;1.77;;;;;;;;;;5418198;26;20014;-80
2024/04/17 04:33:22;;;;;;;2.30;2.05;;;;;;;;;;5419772;26;20021;-81
2024/04/17 04:35:48;;;;;;;2.90;2.58;;;;;;;;;;5419314;26;20115;-82
2024/04/17 04:38:14;;;;;;;3.05;2.00;;;;;;;;;;5419512;26;20080;-80
2024/04/17 04:40:41;;;;;;;2.17;1.98;;;;;;;;;;5418496;26;20073;-80
2024/04/17 04:43:07;;;;;;;2.00;1.83;;;;;;;;;;5414172;26;19993;-80
2024/04/17 04:45:34;;;;;;;2.28;1.98;;;;;;;;;;5442181;26;20512;-80
2024/04/17 04:48:00;;;;;;;2.70;2.00;;;;;;;;;;5420293;26;20027;-80
2024/04/17 04:50:26;;;;;;;1.95;1.83;;;;;;;;;;5403644;26;19995;-80
2024/04/17 04:52:52;;;;;;;2.30;2.10;;;;;;;;;;5420192;26;19995;-81
2024/04/17 04:55:18;;;;;;;2.47;1.88;;;;;;;;;;5420684;26;19991;-80
2024/04/17 04:57:46;;;;;;;2.10;1.83;;;;;;;;;;5417117;26;20004;-79
2024/04/17 05:00:13;;;;;;;1.88;1.73;;;;;;;;;;5409945;26;19992;-80
2024/04/17 05:02:39;;;;;;;2.30;2.10;;;;;;;;;;5417422;26;19992;-77
2024/04/17 05:05:05;;;;;;;1.67;1.42;;;;;;;;;;5403133;26;20188;-78
2024/04/17 05:07:31;;;;;;;2.42;1.90;;;;;;;;;;5415755;26;20464;-78
2024/04/17 05:09:58;;;;;;;2.67;2.00;;;;;;;;;;5411470;26;19996;-78
2024/04/17 05:12:24;;;;;;;2.00;1.80;;;;;;;;;;5415498;26;20072;-77
2024/04/17 05:14:50;;;;;;;1.60;1.50;;;;;;;;;;5415326;26;20011;-78
2024/04/17 05:17:19;;;;;;;1.60;1.50;;;;;;;;;;5398507;26;20007;-79
2024/04/17 05:19:45;;;;;;;1.40;1.27;;;;;;;;;;5416889;26;19996;-78
2024/04/17 05:22:11;;;;;;;1.25;1.13;;;;;;;;;;5417708;26;20335;-79
2024/04/17 05:24:38;;;;;;;1.75;1.33;;;;;;;;;;5403837;26;20334;-79
2024/04/17 05:27:04;;;;;;;1.40;1.30;;;;;;;;;;5420117;26;19996;-78
2024/04/17 05:29:30;;;;;;;1.50;1.10;;;;;;;;;;5420568;26;20011;-78
2024/04/17 05:31:56;;;;;;;1.40;1.20;;;;;;;;;;5402698;26;20011;-79
2024/04/17 05:34:22;;;;;;;1.33;1.10;;;;;;;;;;5420718;26;20024;-78
2024/04/17 05:36:49;;;;;;;1.10;0.85;;;;;;;;;;5420635;26;20378;-79
2024/04/17 05:39:15;;;;;;;1.00;1.00;;;;;;;;;;5421402;26;20477;-80
2024/04/17 05:41:41;;;;;;;0.90;0.90;;;;;;;;;;5421283;26;20015;-79
2024/04/17 05:44:07;;;;;;;0.50;0.50;;;;;;;;;;5404507;26;20000;-78
2024/04/17 05:46:33;;;;;;;0.95;0.95;;;;;;;;;;5419419;26;20038;-79
2024/04/17 05:48:59;;;;;;;0.70;0.70;;;;;;;;;;5405280;26;20006;-78
2024/04/17 05:51:25;;;;;;;0.60;0.60;;;;;;;;;;5420791;26;20000;-79
2024/04/17 05:53:52;;;;;;;0.95;0.80;;;;;;;;;;5417752;26;20000;-78
2024/04/17 05:56:18;;;;;;;0.70;0.70;;;;;;;;;;5419063;26;20003;-80
2024/04/17 05:58:44;;;;;;;0.40;0.40;;;;;;;;;;5419767;26;20011;-79
2024/04/17 06:01:10;;;;;;;1.52;1.42;;;;;;;;;;5418487;26;19992;-78
2024/04/17 06:03:36;;;;;;;1.33;1.23;;;;;;;;;;5418882;26;19999;-79
2024/04/17 06:06:02;;;;;;;1.60;1.48;;;;;;;;;;5419066;26;19995;-78
2024/04/17 06:08:28;;;;;;;1.48;1.38;;;;;;;;;;5421640;26;20006;-79
2024/04/17 06:10:54;;;;;;;1.02;1.02;;;;;;;;;;5409526;26;20003;-78
2024/04/17 06:13:21;;;;;;;0.90;0.90;;;;;;;;;;5415455;26;20012;-79
2024/04/17 06:15:48;;;;;;;1.30;1.20;;;;;;;;;;5437367;26;19996;-78
2024/04/17 06:18:14;;;;;;;1.40;1.30;;;;;;;;;;5422802;26;20041;-77
2024/04/17 06:20:43;;;;;;;1.13;1.05;;;;;;;;;;5418357;26;20405;-78
2024/04/17 06:23:10;;;;;;;1.70;0.80;;;;;;;;;;5405023;26;20461;-78
2024/04/17 06:25:36;;;;;;;0.90;0.90;;;;;;;;;;5409533;26;20042;-79
2024/04/17 06:28:02;;;;;;;0.88;0.88;;;;;;;;;;5418100;26;19995;-79
2024/04/17 06:30:29;;;;;;;0.80;0.80;;;;;;;;;;5399118;26;20439;-78
2024/04/17 06:32:55;;;;;;;0.40;0.40;;;;;;;;;;5407675;26;19995;-79
2024/04/17 06:35:21;;;;;;;0.75;0.75;;;;;;;;;;5398565;26;20284;-78
2024/04/17 06:37:47;;;;;;;0.50;0.50;;;;;;;;;;5391228;26;20475;-78
2024/04/17 06:40:14;;;;;;;0.90;0.75;;;;;;;;;;5422112;26;20069;-77
2024/04/17 06:42:40;;;;;;;0.93;0.82;;;;;;;;;;5402375;26;20448;-78
2024/04/17 06:45:06;;;;;;;0.82;0.82;;;;;;;;;;5405372;26;20036;-78
2024/04/17 06:47:32;;;;;;;1.30;1.20;;;;;;;;;;5387644;26;20004;-78
2024/04/17 06:49:59;;;;;;;1.02;0.73;;;;;;;;;;5417548;26;20130;-78
2024/04/17 06:52:25;;;;;;;0.70;0.70;;;;;;;;;;5419599;26;20010;-78
2024/04/17 06:54:51;;;;;;;1.75;0.90;;;;;;;;;;5404097;26;20070;-78
2024/04/17 06:57:17;;;;;;;0.60;0.60;;;;;;;;;;5418313;26;20007;-78
2024/04/17 06:59:43;;;;;;;0.98;0.98;;;;;;;;;;5421604;26;19995;-79
2024/04/17 07:02:10;;;;;;;0.75;0.75;;;;;;;;;;5422197;26;19995;-78
2024/04/17 07:04:36;;;;;;;0.60;0.60;;;;;;;;;;5431341;26;19988;-79
2024/04/17 07:07:03;;;;;;;1.40;0.82;;;;;;;;;;5436016;26;20011;-77
2024/04/17 07:09:29;;;;;;;0.82;0.80;;;;;;;;;;5437040;26;19988;-77
2024/04/17 07:11:55;;;;;;;1.58;1.17;;;;;;;;;;5436160;26;19995;-78
2024/04/17 07:14:21;;;;;;;2.80;1.00;;;;;;;;;;5437847;26;20006;-80
2024/04/17 07:16:47;;;;;;;1.00;1.00;;;;;;;;;;5436851;26;20010;-79
2024/04/17 07:19:13;;;;;;;0.93;0.93;;;;;;;;;;5437409;26;20008;-77
2024/04/17 07:21:40;;;;;;;1.15;1.05;;;;;;;;;;5430757;26;19995;-78
2024/04/17 07:24:06;;;;;;;1.30;1.08;;;;;;;;;;5417264;26;19995;-79
2024/04/17 07:26:32;;;;;;;0.90;0.90;;;;;;;;;;5405711;26;20000;-79
2024/04/17 07:28:58;;;;;;;1.20;1.10;;;;;;;;;;5434287;26;19995;-78
2024/04/17 07:31:25;;;;;;;0.90;0.90;;;;;;;;;;5437367;26;20015;-79
2024/04/17 07:33:51;;;;;;;1.08;0.90;;;;;;;;;;5435785;26;20014;-79
2024/04/17 07:36:17;;;;;;;0.70;0.70;;;;;;;;;;5447833;26;20021;-78
2024/04/17 07:38:45;;;;;;;0.80;0.80;;;;;;;;;;5435804;26;20073;-78
2024/04/17 07:41:11;;;;;;;0.70;0.70;;;;;;;;;;5423878;26;20002;-79
2024/04/17 07:43:37;;;;;;;1.17;1.05;;;;;;;;;;5409370;26;20013;-79
2024/04/17 07:46:04;;;;;;;1.00;1.00;;;;;;;;;;5421346;26;20000;-78
2024/04/17 07:48:30;;;;;;;1.15;1.05;;;;;;;;;;5423004;26;20007;-79
2024/04/17 07:50:58;;;;;;;1.30;1.20;;;;;;;;;;5425429;26;20007;-77
2024/04/17 07:53:24;;;;;;;1.27;1.17;;;;;;;;;;5426636;26;20011;-78
2024/04/17 07:55:50;;;;;;;1.60;1.25;;;;;;;;;;5423471;26;20003;-79
2024/04/17 07:58:16;;;;;;;3.10;1.20;;;;;;;;;;5408977;26;19999;-79
2024/04/17 08:00:42;;;;;;;0.80;0.80;;;;;;;;;;5419553;26;19996;-78
2024/04/17 08:03:11;;;;;;;0.80;0.80;;;;;;;;;;5413214;26;20053;-78
2024/04/17 08:05:37;;;;;;;0.90;0.90;;;;;;;;;;5434049;26;19992;-80
2024/04/17 08:08:03;;;;;;;0.57;0.57;;;;;;;;;;5432094;26;20012;-79
2024/04/17 08:10:29;;;;;;;0.45;0.45;;;;;;;;;;5405861;26;20012;-79
2024/04/17 08:13:07;;;;;;;0.60;0.60;;;;;;;;;;5416178;26;19999;-78
2024/04/17 08:15:34;;;;;;;0.52;0.52;;;;;;;;;;5421938;26;20014;-79
2024/04/17 08:18:00;;;;;;;0.50;0.50;;;;;;;;;;5430777;26;20000;-78
2024/04/17 08:20:26;;;;;;;1.10;0.73;;;;;;;;;;5419154;26;20399;-78
2024/04/17 08:22:52;;;;;;;0.80;0.80;;;;;;;;;;5419850;26;19999;-79
2024/04/17 08:25:18;;;;;;;0.82;0.82;;;;;;;;;;5417922;26;20004;-78
2024/04/17 08:27:45;;;;;;;0.55;0.55;;;;;;;;;;5418215;26;20554;-79
2024/04/17 08:30:11;;;;;;;0.77;0.75;;;;;;;;;;5417421;26;20000;-79
2024/04/17 08:32:41;;;;;;;0.70;0.70;;;;;;;;;;5420129;26;20323;-78
2024/04/17 08:35:08;;;;;;;0.90;0.90;;;;;;;;;;5400802;26;20015;-80
2024/04/17 08:37:35;;;;;;;0.65;0.65;;;;;;;;;;5408187;26;20000;-79
2024/04/17 08:40:01;;;;;;;0.85;0.70;;;;;;;;;;5416909;26;20020;-79
2024/04/17 08:42:29;;;;;;;0.95;0.70;;;;;;;;;;5419641;26;20115;-78
2024/04/17 08:44:55;;;;;;;0.77;0.77;;;;;;;;;;5416043;26;20011;-78
2024/04/17 08:47:23;;;;;;;0.50;0.50;;;;;;;;;;5415031;26;20004;-78
2024/04/17 08:49:50;;;;;;;1.25;0.40;;;;;;;;;;5417407;26;20005;-77
2024/04/17 08:52:18;;;;;;;0.40;0.40;;;;;;;;;;5402825;26;20003;-80
2024/04/17 08:54:45;;;;;;;1.00;0.40;;;;;;;;;;5416881;26;20068;-80
2024/04/17 08:57:12;;;;;;;0.30;0.30;;;;;;;;;;5417404;26;20096;-78
2024/04/17 08:59:38;;;;;;;0.32;0.32;;;;;;;;;;5410043;26;20069;-78
2024/04/17 09:02:11;;;;;;;0.30;0.30;;;;;;;;;;5415344;26;19999;-78
2024/04/17 09:04:38;;;;;;;0.82;0.82;;;;;;;;;;5403896;26;19999;-78
2024/04/17 09:07:05;;;;;;;0.90;0.90;;;;;;;;;;5402622;26;20330;-80
2024/04/17 09:09:31;;;;;;;1.00;1.00;;;;;;;;;;5412643;26;20000;-78
2024/04/17 09:11:57;;;;;;;1.35;1.27;;;;;;;;;;5400151;26;19996;-78
2024/04/17 09:14:23;;;;;;;1.38;1.20;;;;;;;;;;5422061;26;20354;-78
2024/04/17 09:16:52;;;;;;;0.88;0.63;;;;;;;;;;5419601;26;19999;-79
2024/04/17 09:19:18;;;;;;;1.13;0.90;;;;;;;;;;5419599;26;20007;-78
2024/04/17 09:21:45;;;;;;;0.70;0.70;;;;;;;;;;5420744;26;20027;-78
2024/04/17 09:24:12;;;;;;;1.10;1.10;;;;;;;;;;5416354;26;20447;-78
2024/04/17 09:26:38;;;;;;;2.35;1.58;;;;;;;;;;5420532;26;19996;-78
2024/04/17 09:29:04;;;;;;;1.20;1.20;;;;;;;;;;5420301;26;20016;-79
2024/04/17 09:31:30;;;;;;;1.70;1.60;;;;;;;;;;5421983;26;20217;-78
2024/04/17 09:33:56;;;;;;;1.27;1.17;;;;;;;;;;5419899;26;20057;-78
2024/04/17 09:36:24;;;;;;;0.90;0.90;;;;;;;;;;5420033;26;20453;-78
2024/04/17 09:38:50;;;;;;;0.77;0.77;;;;;;;;;;5415473;26;20279;-79
2024/04/17 09:41:16;;;;;;;1.10;1.05;;;;;;;;;;5407015;26;20008;-79
2024/04/17 09:43:44;;;;;;;0.93;0.90;;;;;;;;;;5419866;26;20045;-78
2024/04/17 09:46:13;;;;;;;1.50;1.40;;;;;;;;;;5419067;26;20110;-78
2024/04/17 09:48:41;;;;;;;2.38;1.40;;;;;;;;;;5415226;26;20007;-79
2024/04/17 09:51:12;;;;;;;1.80;1.70;;;;;;;;;;5423899;26;20000;-79
2024/04/17 09:53:39;;;;;;;1.73;1.48;;;;;;;;;;5418383;26;19996;-77
2024/04/17 09:56:06;;;;;;;1.77;1.67;;;;;;;;;;5438147;26;20011;-79
2024/04/17 09:58:33;;;;;;;1.73;1.63;;;;;;;;;;5439168;26;20008;-79
2024/04/17 10:01:01;;;;;;;3.25;1.92;;;;;;;;;;5438487;26;19995;-78
2024/04/17 10:03:28;;;;;;;2.03;1.77;;;;;;;;;;5429464;26;20011;-79
2024/04/17 10:05:55;;;;;;;1.60;1.50;;;;;;;;;;5431690;26;20003;-79
2024/04/17 10:08:21;;;;;;;1.67;1.58;;;;;;;;;;5430492;26;20011;-79
2024/04/17 10:10:48;;;;;;;1.48;1.38;;;;;;;;;;5432718;26;19994;-80
2024/04/17 10:13:14;;;;;;;1.80;1.70;;;;;;;;;;5428390;26;20004;-79
2024/04/17 10:15:41;;;;;;;1.30;1.20;;;;;;;;;;5426823;26;19992;-79
2024/04/17 10:18:07;;;;;;;1.30;1.25;;;;;;;;;;5419095;26;20000;-79
2024/04/17 10:20:33;;;;;;;1.10;1.10;;;;;;;;;;5413442;26;19999;-79
2024/04/17 10:23:03;;;;;;;1.75;1.48;;;;;;;;;;5423028;26;20002;-79
2024/04/17 10:25:29;;;;;;;1.33;1.33;;;;;;;;;;5425307;26;19996;-79
2024/04/17 10:28:01;;;;;;;3.63;1.70;;;;;;;;;;5421166;26;20042;-79
2024/04/17 10:30:27;;;;;;;1.80;1.70;;;;;;;;;;5434336;26;20015;-79
2024/04/17 10:32:53;;;;;;;1.98;1.67;;;;;;;;;;5432167;26;20004;-80
2024/04/17 10:35:20;;;;;;;2.33;1.67;;;;;;;;;;5432214;26;20010;-79
2024/04/17 10:37:47;;;;;;;2.15;1.63;;;;;;;;;;5428624;26;20443;-79
2024/04/17 10:40:13;;;;;;;1.13;1.10;;;;;;;;;;5409249;26;19991;-79
2024/04/17 10:42:40;;;;;;;1.05;1.05;;;;;;;;;;5422706;26;20006;-80
2024/04/17 10:45:06;;;;;;;2.03;1.80;;;;;;;;;;5424148;26;20010;-79
2024/04/17 10:47:34;;;;;;;2.85;1.63;;;;;;;;;;5409809;26;20021;-79
2024/04/17 10:50:01;;;;;;;1.35;1.25;;;;;;;;;;5420657;26;20009;-78
2024/04/17 10:52:29;;;;;;;1.60;1.50;;;;;;;;;;5421210;26;19999;-78
2024/04/17 10:54:55;;;;;;;1.80;1.42;;;;;;;;;;5407748;26;20024;-79
2024/04/17 10:57:22;;;;;;;2.05;1.17;;;;;;;;;;5414311;26;20058;-78
2024/04/17 10:59:51;;;;;;;1.65;1.55;;;;;;;;;;5413589;26;19999;-80
2024/04/17 11:02:17;;;;;;;2.67;2.28;;;;;;;;;;5410199;26;20003;-79
2024/04/17 11:04:44;;;;;;;1.90;1.80;;;;;;;;;;5430840;26;19999;-80
2024/04/17 11:07:10;;;;;;;2.40;1.55;;;;;;;;;;5419353;26;20010;-78
2024/04/17 11:09:37;;;;;;;1.50;1.40;;;;;;;;;;5408086;26;20003;-78
2024/04/17 11:12:03;;;;;;;2.00;1.70;;;;;;;;;;5419026;26;19999;-78
2024/04/17 11:14:29;;;;;;;1.10;1.10;;;;;;;;;;5417673;26;20336;-78
2024/04/17 11:16:56;;;;;;;1.70;1.60;;;;;;;;;;5418851;26;20071;-78
2024/04/17 11:19:22;;;;;;;1.83;1.73;;;;;;;;;;5411885;26;20027;-79
2024/04/17 11:21:51;;;;;;;2.33;1.83;;;;;;;;;;5419592;26;20076;-79
2024/04/17 11:24:21;;;;;;;3.08;2.17;;;;;;;;;;5408064;26;20443;-79
2024/04/17 11:26:47;;;;;;;2.30;2.10;;;;;;;;;;5419482;26;19992;-78
2024/04/17 11:29:18;;;;;;;1.58;1.48;;;;;;;;;;5420388;26;20012;-78
2024/04/17 11:31:44;;;;;;;1.70;1.60;;;;;;;;;;5403026;26;20458;-78
2024/04/17 11:34:20;;;;;;;1.38;1.38;;;;;;;;;;5403080;26;20080;-78
2024/04/17 11:36:50;;;;;;;1.25;1.10;;;;;;;;;;5419846;26;20000;-79
2024/04/17 11:39:16;;;;;;;1.85;1.75;;;;;;;;;;5404506;26;20002;-77
2024/04/17 11:41:42;;;;;;;2.05;1.92;;;;;;;;;;5419227;26;20022;-77
2024/04/17 11:44:11;;;;;;;1.45;1.35;;;;;;;;;;5419656;26;20000;-78
2024/04/17 11:46:39;;;;;;;2.97;1.33;;;;;;;;;;5409757;26;20012;-78
2024/04/17 11:49:06;;;;;;;1.23;1.10;;;;;;;;;;5416825;26;20347;-78
2024/04/17 11:51:32;;;;;;;1.50;1.20;;;;;;;;;;5419930;26;19999;-79
2024/04/17 11:53:58;;;;;;;1.48;1.40;;;;;;;;;;5404931;26;20003;-78
2024/04/17 11:56:24;;;;;;;0.68;0.68;;;;;;;;;;5417137;26;20015;-79
2024/04/17 11:58:50;;;;;;;0.70;0.70;;;;;;;;;;5407940;26;20010;-78
2024/04/17 12:01:17;;;;;;;2.80;1.05;;;;;;;;;;5417125;26;20453;-79
2024/04/17 12:03:43;;;;;;;0.80;0.80;;;;;;;;;;5405863;26;20042;-78
2024/04/17 12:06:09;;;;;;;3.33;1.40;;;;;;;;;;5401962;26;20003;-77
2024/04/17 12:08:35;;;;;;;1.70;1.60;;;;;;;;;;5418285;26;20053;-78
2024/04/17 12:11:02;;;;;;;2.05;1.73;;;;;;;;;;5407262;26;20350;-79
2024/04/17 12:13:28;;;;;;;2.08;1.90;;;;;;;;;;5431806;26;20407;-78
2024/04/17 12:15:54;;;;;;;1.95;1.85;;;;;;;;;;5418344;26;20000;-78
2024/04/17 12:18:20;;;;;;;2.53;2.22;;;;;;;;;;5418768;26;20297;-77
2024/04/17 12:20:47;;;;;;;4.10;2.47;;;;;;;;;;5420712;26;19995;-77
2024/04/17 12:23:18;;;;;;;2.00;1.90;;;;;;;;;;5437038;26;19996;-78
2024/04/17 12:28:48;;;;;;;2.38;1.70;;;;;;;;;;5429089;26;20002;-76
2024/04/17 12:31:14;;;;;;;1.45;1.35;;;;;;;;;;5431741;26;19999;-78
2024/04/17 12:33:41;;;;;;;1.60;1.50;;;;;;;;;;5410383;26;20471;-77
2024/04/17 12:36:07;;;;;;;2.08;1.88;;;;;;;;;;5409440;26;20036;-77
2024/04/17 12:38:34;;;;;;;2.75;2.25;;;;;;;;;;5416317;26;19992;-77
2024/04/17 12:41:00;;;;;;;3.28;2.10;;;;;;;;;;5418385;26;20080;-77
2024/04/17 12:43:26;;;;;;;4.60;3.15;;;;;;;;;;5413426;26;20011;-79
2024/04/17 12:45:53;;;;;;;3.60;3.10;;;;;;;;;;5416140;26;20003;-78
2024/04/17 12:48:19;;;;;;;4.93;3.40;;;;;;;;;;5419362;26;20010;-78
2024/04/17 12:50:48;;;;;;;3.65;3.17;;;;;;;;;;5417413;26;20363;-78
2024/04/17 12:53:14;;;;;;;4.25;3.63;;;;;;;;;;5412655;26;20432;-77
2024/04/17 12:55:40;;;;;;;3.33;2.88;;;;;;;;;;5408520;26;20511;-78
2024/04/17 12:58:06;;;;;;;3.80;2.90;;;;;;;;;;5415907;26;20391;-78
2024/04/17 13:00:32;;;;;;;2.92;2.53;;;;;;;;;;5429507;26;20016;-77
2024/04/17 13:02:59;;;;;;;4.22;3.22;;;;;;;;;;5418134;26;20015;-76
2024/04/17 13:05:25;;;;;;;2.45;2.10;;;;;;;;;;5409909;26;20007;-77
2024/04/17 13:07:51;;;;;;;2.60;2.05;;;;;;;;;;5417230;26;20000;-78
2024/04/17 13:10:17;;;;;;;2.05;1.70;;;;;;;;;;5417121;26;20002;-79
2024/04/17 13:12:43;;;;;;;2.38;1.60;;;;;;;;;;5417151;26;19999;-78
2024/04/17 13:15:09;;;;;;;2.00;1.35;;;;;;;;;;5415180;26;20007;-77
2024/04/17 13:17:36;;;;;;;1.33;1.02;;;;;;;;;;5412692;26;20011;-77
2024/04/17 13:20:02;;;;;;;1.67;1.02;;;;;;;;;;5414236;26;20007;-78
2024/04/17 13:22:28;;;;;;;1.70;1.02;;;;;;;;;;5410345;26;20046;-79
2024/04/17 13:24:54;;;;;;;1.30;1.20;;;;;;;;;;5418363;26;20311;-78
2024/04/17 13:27:20;;;;;;;1.15;0.82;;;;;;;;;;5416246;26;20457;-79
2024/04/17 13:29:47;;;;;;;0.70;0.70;;;;;;;;;;5417515;26;20034;-78
2024/04/17 13:32:13;;;;;;;1.05;0.95;;;;;;;;;;5417992;26;19996;-78
2024/04/17 13:34:39;;;;;;;1.38;1.27;;;;;;;;;;5418924;26;20362;-78
2024/04/17 13:37:05;;;;;;;0.93;0.60;;;;;;;;;;5420929;26;20000;-78
2024/04/17 13:39:33;;;;;;;0.55;0.55;;;;;;;;;;5413365;26;20069;-78
2024/04/17 13:41:59;;;;;;;0.40;0.40;;;;;;;;;;5410719;26;20015;-77
2024/04/17 13:44:25;;;;;;;0.40;0.40;;;;;;;;;;5417787;26;20457;-79
2024/04/17 13:46:51;;;;;;;0.30;0.30;;;;;;;;;;5417514;26;19996;-78
2024/04/17 13:49:17;;;;;;;0.40;0.40;;;;;;;;;;5420102;26;20003;-79
2024/04/17 13:51:43;;;;;;;0.30;0.30;;;;;;;;;;5396278;26;20431;-79
2024/04/17 13:54:14;;;;;;;0.30;0.30;;;;;;;;;;5417871;26;20425;-79
2024/04/17 13:56:40;;;;;;;0.30;0.30;;;;;;;;;;5411886;26;19995;-76
2024/04/17 13:59:06;;;;;;;0.40;0.40;;;;;;;;;;5420276;26;20007;-77
2024/04/17 14:01:33;;;;;;;0.30;0.30;;;;;;;;;;5420349;26;20457;-77
2024/04/17 14:03:59;;;;;;;0.40;0.40;;;;;;;;;;5423207;26;20014;-79
2024/04/17 14:06:25;;;;;;;0.60;0.60;;;;;;;;;;5420689;26;20000;-77
2024/04/17 14:08:51;;;;;;;0.30;0.30;;;;;;;;;;5421834;26;20018;-77
2024/04/17 14:11:17;;;;;;;0.32;0.32;;;;;;;;;;5419634;26;19999;-78
2024/04/17 14:13:44;;;;;;;0.40;0.40;;;;;;;;;;5419276;26;20352;-77
2024/04/17 14:16:10;;;;;;;0.50;0.50;;;;;;;;;;5418104;26;20319;-78
2024/04/17 14:18:36;;;;;;;0.50;0.50;;;;;;;;;;5418341;26;20380;-77
2024/04/17 14:21:02;;;;;;;0.20;0.20;;;;;;;;;;5415443;26;19999;-78
2024/04/17 14:23:28;;;;;;;0.40;0.40;;;;;;;;;;5396192;26;20004;-78
2024/04/17 14:25:58;;;;;;;0.32;0.32;;;;;;;;;;5414996;26;20428;-78
2024/04/17 14:28:26;;;;;;;0.47;0.47;;;;;;;;;;5420097;26;20000;-78
2024/04/17 14:31:05;;;;;;;0.40;0.40;;;;;;;;;;5418811;26;20010;-78
2024/04/17 14:33:35;;;;;;;0.30;0.30;;;;;;;;;;5415734;26;20003;-77
2024/04/17 14:36:07;;;;;;;0.35;0.20;;;;;;;;;;5417271;26;20014;-77
2024/04/17 14:38:35;;;;;;;;;;;;;;;;;;5406958;26;20070;-78
2024/04/17 14:41:03;;;;;;;0.28;0.28;;;;;;;;;;5407520;26;19933;-77